Relevés horaires Chievres (Belgique)


Relevés horaires à Chievres - Dimanche 25 Juin 2017
Heure UTC1 Température [°C] Vent [km/h] Hum. [%] Pres.4 [hPa] Visi. [Km] Nébu. [octa] Préc.5 [mm] Cond.
2m. Res. Ros. Dir.2 Vit. Moy. Raf.3
23:00 15.5 15.5 12.6 OSO 3.7 -- 7.4 83 1014.1(0.0/3h) 20 -- -- --
22:00 16.7 16.7 12.9 O 3.7 -- 13.0 78 1014.2(0.3/3h) 20 -- -- --
21:00 17.1 17.1 12.5 OSO 7.4 -- 22.2 74 1014.3(0.2/3h) 20 -- -- --
20:00 18.5 18.5 12.9 OSO 13.0 -- 22.2 70 1014.1(-0.3/3h) 20 -- -- --
19:00 18.8 18.8 13.1 OSO 7.4 -- 13.0 69 1013.8(-0.4/3h) 20 -- -- --
18:00 19.0 19.0 12.9 O 7.4 -- 24.1 68 1014.1(-0.2/3h) 20 -- -- --
17:00 18.8 18.8 12.9 O 9.3 -- 20.4 69 1014.3(0.2/3h) 20 -- -- --
16:00 19.7 19.7 11.8 OSO 13.0 -- 22.2 60 1014.3(0.0/3h) 20 -- -- --
15:00 21.8 21.8 12.1 OSO 13.0 -- 24.1 54 1014.2(-0.3/3h) 20 -- -- --
14:00 22.6 22.6 11.7 OSO 13.0 -- 24.1 50 1014(-0.4/3h) 20 -- -- --
13:00 21.5 21.5 11.5 SO 11.1 -- 20.4 53 1014.3(-0.1/3h) 20 -- -- --
12:00 21.0 21.0 11.0 OSO 11.1 -- 20.4 53 1014.6(0.4/3h) 20 -- -- --
11:00 21.2 21.2 11.4 OSO 11.1 -- 18.5 54 1014.5(0.3/3h) 20 -- -- --
10:00 19.6 19.6 12.0 OSO 11.1 -- 20.4 61 1014.6(0.6/3h) 20 -- -- --
09:00 18.1 18.1 12.6 OSO 11.1 -- 16.7 70 1014.2(0.5/3h) 20 -- -- --
08:00 16.6 16.6 12.9 OSO 9.3 -- 16.7 79 1014.2(0.8/3h) 20 -- -- --
07:00 16.0 15.9 13.1 OSO 9.3 -- 16.7 83 1014.1(0.5/3h) 20 -- -- --
06:00 16.0 15.9 13.3 OSO 9.3 -- 20.4 84 1013.7(0.3/3h) 20 -- 1/12h
--
05:00 15.7 15.3 13.3 OSO 11.1 -- 20.4 86 1013.5(-0.1/3h) 20 -- -- --
04:00 15.9 15.8 14.0 OSO 9.3 -- 16.7 88 1013.5(-0.4/3h) 20 -- -- --
03:00 16.3 16.3 15.3 OSO 5.6 -- 14.8 94 1013.3(-0.8/3h) 19 -- -- --
02:00 16.3 16.3 15.0 SO 7.4 -- 14.8 92 1013.6(-0.9/3h) 9 -- -- --
01:00 16.5 16.5 14.8 SO 9.3 -- 14.8 90 1013.8(-1.2/3h) 15 -- -- --
00:00 17.4 17.4 13.7 OSO 7.4 -- 20.4 79 1014.2(-1.0/3h) 19 -- -- --

1 Coordinated Universal Time. Actuellement il est 18:00 locale et 17:00 UTC.

2 Le vent souffle depuis la direction indiquée vers la direction oposée.

3 Les rafales max. sont disponible 40 min après l'heure du relevé.

4 Pour les stations d'altitude (plus de 600m) le géopotentiel du niveau le plus proche de la pression obligatoire est indiqué.

5 Les stations disposant d'un diffuseur peuvent indiquer "trace". Cela signifie que des précipitations ont touchés le sol mais que la quantité est inférieure à 0.1 mm.

Récapitulatif de la journée
Température [°C] Vent [km/h] Ensoleillement4 [h] Precipitations totale5 [mm] Pression [Hpa]
Min1 Max.2 Moy.3 Max. Min Max.
15.6 23.2 0 24.1 0 h 0 min 0 1013.3 1014.6

1 Température minimale relevée entre 18:00 UTC la veille et 18:00 UTC le jour donné.

2 Température maximale relevée entre 06:00 UTC le jour donné et 06:00 UTC le lendemain.

3 Vent moyen de la journée basé sur les relevés horaires.

4 Ensoleillement en heures relevé entre 06:00 UTC la veille et 06:00 UTC le jour donné.

5 Précipitations totales tombées entre 06:00 UTC la jour donné et 06:00 UTC le lendemain.

Graphiques horaires